Time;durP1;ratioP1;P1;durP2;ratioP2;P2;SDS_P1;SDS_P2;PMS_P1;PMS_P2;Temp;Humidity;BMP_temperature;BMP_pressure;BME280_temperature;BME280_humidity;BME280_pressure;Samples;Min_cycle;Max_cycle;Signal;HPM_P1;HPM_P2
2022/06/09 00:00:01;;;;;;;7.60;1.63;;;13.30;99.90;;;;;;5093499;28;20187;-39
2022/06/09 00:02:29;;;;;;;4.33;1.20;;;13.30;99.90;;;;;;5093903;28;20519;-42
2022/06/09 00:04:55;;;;;;;4.50;1.17;;;13.20;99.90;;;;;;5093753;28;20179;-42
2022/06/09 00:07:25;;;;;;;7.73;1.80;;;13.20;99.90;;;;;;5093421;28;20199;-40
2022/06/09 00:09:54;;;;;;;8.40;1.67;;;13.20;99.90;;;;;;5101813;22;20224;-42
2022/06/09 00:12:22;;;;;;;5.40;1.47;;;13.20;99.90;;;;;;5053253;28;20172;-40
2022/06/09 00:14:48;;;;;;;8.00;1.20;;;13.20;99.90;;;;;;5053222;28;20172;-39
2022/06/09 00:17:13;;;;;;;7.63;1.83;;;13.20;99.90;;;;;;5053228;28;20176;-42
2022/06/09 00:19:39;;;;;;;6.23;1.63;;;13.20;99.90;;;;;;5053303;28;20231;-42
2022/06/09 00:22:05;;;;;;;6.83;1.30;;;13.10;99.90;;;;;;5053351;28;20255;-42
2022/06/09 00:24:30;;;;;;;7.80;1.70;;;13.20;99.90;;;;;;5054936;28;20177;-42
2022/06/09 00:26:56;;;;;;;9.57;1.70;;;13.20;99.90;;;;;;5053017;28;20211;-41
2022/06/09 00:29:22;;;;;;;4.80;1.43;;;13.10;99.90;;;;;;5053038;28;20606;-42
2022/06/09 00:31:47;;;;;;;5.77;1.60;;;13.10;99.90;;;;;;5053054;28;20226;-42
2022/06/09 00:34:13;;;;;;;4.80;1.47;;;13.10;99.90;;;;;;5035455;28;20631;-41
2022/06/09 00:36:39;;;;;;;6.70;1.57;;;13.10;99.90;;;;;;5052923;28;20211;-40
2022/06/09 00:39:05;;;;;;;4.87;1.90;;;13.10;99.90;;;;;;5053178;28;20200;-39
2022/06/09 00:41:40;;;;;;;7.77;1.50;;;13.20;99.90;;;;;;5053573;28;20263;-41
2022/06/09 00:44:25;;;;;;;6.17;1.53;;;13.20;99.90;;;;;;5052969;28;20199;-41
2022/06/09 00:47:02;;;;;;;7.40;2.13;;;13.20;99.90;;;;;;5053145;28;20195;-43
2022/06/09 00:49:31;;;;;;;4.87;1.27;;;13.30;99.90;;;;;;5053177;28;20199;-41
2022/06/09 00:52:01;;;;;;;4.17;1.47;;;13.30;99.90;;;;;;5056454;28;20173;-43
2022/06/09 00:54:36;;;;;;;7.60;1.83;;;13.40;99.90;;;;;;5053211;28;20186;-41
2022/06/09 00:57:06;;;;;;;7.43;2.10;;;13.40;99.90;;;;;;5053299;28;20180;-41
2022/06/09 00:59:35;;;;;;;7.10;1.70;;;13.40;99.90;;;;;;5052875;28;20196;-41
2022/06/09 01:02:06;;;;;;;6.07;1.90;;;13.50;99.90;;;;;;5052858;28;20211;-40
2022/06/09 01:04:33;;;;;;;6.90;1.50;;;13.40;99.90;;;;;;5057006;28;20174;-44
2022/06/09 01:07:15;;;;;;;3.43;1.77;;;13.50;99.90;;;;;;5052676;28;20219;-44
2022/06/09 01:09:41;;;;;;;7.00;1.93;;;13.50;99.90;;;;;;5058096;28;20212;-41
2022/06/09 01:12:41;;;;;;;10.57;2.00;;;13.40;99.90;;;;;;5057007;28;20171;-43
2022/06/09 01:15:16;;;;;;;9.83;2.10;;;13.40;99.90;;;;;;5013575;28;20254;-43
2022/06/09 01:17:42;;;;;;;10.00;1.83;;;13.40;99.90;;;;;;5056980;28;20491;-41
2022/06/09 01:20:07;;;;;;;6.27;1.57;;;13.40;99.90;;;;;;5056378;28;20186;-42
2022/06/09 01:22:55;;;;;;;7.77;1.80;;;13.30;99.90;;;;;;5056340;28;20274;-43
2022/06/09 01:25:57;;;;;;;11.13;2.00;;;13.30;99.90;;;;;;5056685;28;20573;-43
2022/06/09 01:28:58;;;;;;;6.07;1.47;;;13.30;99.90;;;;;;5056293;28;20212;-43
2022/06/09 01:32:00;;;;;;;7.53;2.30;;;13.30;99.90;;;;;;5056352;28;20180;-45
2022/06/09 01:35:03;;;;;;;7.10;1.77;;;13.30;99.90;;;;;;5045136;28;20192;-43
2022/06/09 01:37:48;;;;;;;5.20;1.73;;;13.30;99.90;;;;;;5038061;28;20179;-45
2022/06/09 01:40:17;;;;;;;5.03;2.03;;;13.30;99.90;;;;;;5056235;28;20658;-42
2022/06/09 01:42:48;;;;;;;5.63;1.93;;;13.30;99.90;;;;;;5056346;28;20184;-42
2022/06/09 01:45:54;;;;;;;6.60;2.70;;;13.30;99.90;;;;;;5056136;28;20605;-41
2022/06/09 01:48:24;;;;;;;10.83;1.87;;;13.20;99.90;;;;;;5055789;28;20242;-43
2022/06/09 01:51:00;;;;;;;9.17;2.33;;;13.30;99.90;;;;;;5056119;28;20628;-42
2022/06/09 01:53:28;;;;;;;9.87;2.17;;;13.30;99.90;;;;;;5055730;28;20218;-43
2022/06/09 01:56:03;;;;;;;8.83;2.20;;;13.30;99.90;;;;;;5055762;28;20170;-42
2022/06/09 01:58:35;;;;;;;6.43;2.17;;;13.30;99.90;;;;;;5056172;28;20199;-44
2022/06/09 02:01:02;;;;;;;7.03;2.00;;;13.30;99.90;;;;;;5055591;28;20156;-42
2022/06/09 02:03:36;;;;;;;12.43;2.30;;;13.30;99.90;;;;;;5056601;28;20187;-43
2022/06/09 02:06:05;;;;;;;7.60;2.60;;;13.30;99.90;;;;;;5056504;28;20547;-41
2022/06/09 02:08:34;;;;;;;4.53;1.93;;;13.30;99.90;;;;;;5056189;28;20583;-43
2022/06/09 02:11:04;;;;;;;10.70;2.53;;;13.30;99.90;;;;;;5055402;28;20184;-44
2022/06/09 02:13:34;;;;;;;12.13;2.83;;;13.30;99.90;;;;;;5055377;28;20219;-44
2022/06/09 02:16:05;;;;;;;8.00;2.83;;;13.30;99.90;;;;;;5055641;28;20177;-43
2022/06/09 02:18:36;;;;;;;9.50;2.67;;;13.30;99.90;;;;;;5056011;28;20200;-45
2022/06/09 02:21:15;;;;;;;6.57;2.30;;;13.30;99.90;;;;;;5055229;28;20160;-43
2022/06/09 02:23:40;;;;;;;6.97;2.63;;;13.30;99.90;;;;;;5056098;28;20168;-43
2022/06/09 02:26:06;;;;;;;11.47;3.10;;;13.30;99.90;;;;;;5055680;28;20645;-44
2022/06/09 02:28:32;;;;;;;8.20;2.67;;;13.30;99.90;;;;;;5055256;28;20192;-42
2022/06/09 02:30:58;;;;;;;11.03;3.23;;;13.30;99.90;;;;;;5055010;28;20221;-40
2022/06/09 02:33:24;;;;;;;13.20;3.37;;;13.20;99.90;;;;;;5055239;28;20620;-42
2022/06/09 02:35:51;;;;;;;10.27;3.23;;;13.30;99.90;;;;;;5054930;28;20184;-43
2022/06/09 02:38:18;;;;;;;8.63;2.93;;;13.30;99.90;;;;;;5054722;28;20200;-44
2022/06/09 02:40:44;;;;;;;9.47;2.73;;;13.30;99.90;;;;;;5055090;28;20574;-42
2022/06/09 02:43:10;;;;;;;13.83;3.53;;;13.30;99.90;;;;;;5054820;28;20261;-41
2022/06/09 02:45:35;;;;;;;12.33;2.83;;;13.30;99.90;;;;;;5054641;28;20682;-42
2022/06/09 02:48:02;;;;;;;14.73;2.63;;;13.20;99.90;;;;;;5054787;28;20218;-42
2022/06/09 02:50:29;;;;;;;13.13;3.13;;;13.30;99.90;;;;;;5054611;28;20261;-40
2022/06/09 02:52:54;;;;;;;12.03;2.73;;;13.30;99.90;;;;;;5054891;28;20266;-43
2022/06/09 02:55:20;;;;;;;11.93;2.60;;;13.30;99.90;;;;;;5054505;28;20340;-44
2022/06/09 02:57:46;;;;;;;8.70;2.57;;;13.30;99.90;;;;;;5054550;28;20183;-43
2022/06/09 03:00:14;;;;;;;12.10;3.20;;;13.30;99.90;;;;;;5054698;28;20534;-42
2022/06/09 03:02:42;;;;;;;13.57;3.27;;;13.30;99.90;;;;;;5054620;28;20242;-40
2022/06/09 03:05:08;;;;;;;12.83;3.27;;;13.30;99.90;;;;;;5038385;28;20627;-41
2022/06/09 03:07:34;;;;;;;12.30;3.60;;;13.30;99.90;;;;;;5054499;28;20554;-42
2022/06/09 03:10:00;;;;;;;12.30;3.47;;;13.30;99.90;;;;;;5054035;28;20202;-41
2022/06/09 03:12:25;;;;;;;10.47;3.30;;;13.40;99.90;;;;;;5055452;28;20671;-42
2022/06/09 03:14:51;;;;;;;14.60;2.93;;;13.30;99.90;;;;;;5054491;28;20173;-41
2022/06/09 03:17:17;;;;;;;12.27;3.60;;;13.30;99.90;;;;;;5036471;28;20195;-44
2022/06/09 03:19:42;;;;;;;9.20;2.63;;;13.40;99.90;;;;;;5054232;28;20234;-43
2022/06/09 03:22:08;;;;;;;7.53;3.07;;;13.40;99.90;;;;;;5054190;28;20187;-43
2022/06/09 03:24:34;;;;;;;12.77;3.20;;;13.30;99.90;;;;;;5054871;28;20640;-43
2022/06/09 03:27:00;;;;;;;9.60;3.23;;;13.30;99.90;;;;;;5053790;28;20208;-42
2022/06/09 03:29:25;;;;;;;8.63;3.00;;;13.30;99.90;;;;;;5053945;28;20590;-45
2022/06/09 03:31:51;;;;;;;15.63;3.20;;;13.30;99.90;;;;;;5053403;28;20259;-44
2022/06/09 03:34:18;;;;;;;17.47;3.90;;;13.30;99.90;;;;;;5054061;28;20592;-44
2022/06/09 03:36:44;;;;;;;13.57;3.50;;;13.30;99.90;;;;;;5053957;28;20184;-43
2022/06/09 03:39:12;;;;;;;12.00;3.27;;;13.30;99.90;;;;;;5054200;28;20222;-43
2022/06/09 03:41:37;;;;;;;13.20;3.47;;;13.30;99.90;;;;;;5054428;28;20184;-42
2022/06/09 03:44:04;;;;;;;12.63;3.43;;;13.30;99.90;;;;;;5054537;28;20550;-44
2022/06/09 03:46:30;;;;;;;10.63;3.80;;;13.40;99.90;;;;;;5054612;28;20200;-42
2022/06/09 03:48:56;;;;;;;10.93;3.10;;;13.40;99.90;;;;;;5054541;28;20666;-42
2022/06/09 03:51:21;;;;;;;8.40;3.33;;;13.30;99.90;;;;;;5054560;28;20258;-43
2022/06/09 03:53:47;;;;;;;14.97;4.23;;;13.40;99.90;;;;;;5054486;28;20180;-41
2022/06/09 03:56:15;;;;;;;15.87;4.03;;;13.40;99.90;;;;;;5055015;28;20529;-43
2022/06/09 03:58:41;;;;;;;13.87;3.60;;;13.40;99.90;;;;;;5053453;28;20685;-41
2022/06/09 04:01:07;;;;;;;13.20;3.47;;;13.40;99.90;;;;;;5053997;28;20176;-45
2022/06/09 04:03:32;;;;;;;11.40;4.03;;;13.40;99.90;;;;;;5053552;28;20171;-43
2022/06/09 04:05:58;;;;;;;14.17;4.20;;;13.40;99.90;;;;;;5057801;28;20594;-45
2022/06/09 04:08:24;;;;;;;13.33;4.00;;;13.40;99.90;;;;;;5053594;28;20196;-46
2022/06/09 04:10:49;;;;;;;14.10;4.57;;;13.40;99.90;;;;;;5053766;28;20199;-46
2022/06/09 04:13:15;;;;;;;12.47;4.00;;;13.50;99.90;;;;;;5053789;28;20270;-46
2022/06/09 04:15:43;;;;;;;10.27;3.53;;;13.50;99.90;;;;;;5054237;28;20179;-46
2022/06/09 04:18:10;;;;;;;13.27;4.13;;;13.50;99.90;;;;;;5054044;28;20287;-45
2022/06/09 04:20:35;;;;;;;16.30;3.90;;;13.50;99.90;;;;;;5053683;28;20179;-44
2022/06/09 04:23:01;;;;;;;14.27;4.20;;;13.60;99.90;;;;;;5053826;28;20183;-45
2022/06/09 04:25:27;;;;;;;17.00;4.60;;;13.50;99.90;;;;;;5053425;28;20250;-45
2022/06/09 04:27:52;;;;;;;16.83;4.37;;;13.60;99.90;;;;;;5053049;28;20203;-44
2022/06/09 04:30:19;;;;;;;15.77;4.50;;;13.60;99.90;;;;;;5053185;28;20180;-45
2022/06/09 04:32:45;;;;;;;13.20;4.80;;;13.70;99.90;;;;;;5054468;28;20191;-46
2022/06/09 04:35:12;;;;;;;17.13;4.37;;;13.70;99.90;;;;;;5053876;28;20643;-46
2022/06/09 04:40:23;;;;;;;13.47;4.10;;;13.80;99.90;;;;;;5054281;28;20171;-45
2022/06/09 04:42:49;;;;;;;10.60;4.13;;;13.90;99.90;;;;;;5036088;28;20180;-46
2022/06/09 04:45:15;;;;;;;10.77;4.07;;;14.00;99.90;;;;;;5057452;28;20255;-46
2022/06/09 04:47:41;;;;;;;21.30;6.07;;;14.10;99.90;;;;;;5057829;28;20230;-47
2022/06/09 04:50:07;;;;;;;13.17;4.03;;;14.10;99.90;;;;;;5057562;28;20332;-47
2022/06/09 04:52:33;;;;;;;15.73;4.07;;;14.20;99.90;;;;;;5057592;28;20168;-46
2022/06/09 04:54:59;;;;;;;16.93;4.00;;;14.20;99.90;;;;;;5057114;28;20230;-47
2022/06/09 04:57:24;;;;;;;13.47;4.70;;;14.20;99.90;;;;;;5057554;28;20175;-46
2022/06/09 04:59:50;;;;;;;13.43;4.67;;;14.10;99.90;;;;;;5039601;28;20203;-46
2022/06/09 05:02:16;;;;;;;13.37;3.70;;;14.10;99.90;;;;;;5057784;28;20184;-44
2022/06/09 05:04:41;;;;;;;14.17;4.23;;;14.20;99.90;;;;;;5057080;28;20267;-42
2022/06/09 05:07:07;;;;;;;13.47;4.17;;;14.10;99.90;;;;;;5056708;28;20220;-41
2022/06/09 05:09:32;;;;;;;19.97;4.30;;;14.10;99.90;;;;;;5056717;28;20652;-45
2022/06/09 05:11:58;;;;;;;14.83;4.63;;;14.10;99.90;;;;;;5057694;28;20168;-43
2022/06/09 05:14:24;;;;;;;12.57;4.57;;;14.10;99.90;;;;;;5057519;28;20177;-47
2022/06/09 05:16:49;;;;;;;11.10;3.87;;;14.10;99.90;;;;;;5057412;28;20636;-46
2022/06/09 05:19:15;;;;;;;19.50;3.80;;;14.10;99.90;;;;;;5057130;28;20265;-42
2022/06/09 05:21:40;;;;;;;13.50;4.07;;;14.10;99.90;;;;;;5056329;28;20177;-42
2022/06/09 05:24:06;;;;;;;18.10;4.37;;;14.10;99.90;;;;;;5056304;28;20191;-41
2022/06/09 05:26:32;;;;;;;10.50;4.33;;;14.10;99.90;;;;;;5038649;28;20208;-40
2022/06/09 05:28:58;;;;;;;14.87;3.83;;;14.20;99.90;;;;;;5056200;28;20197;-40
2022/06/09 05:31:24;;;;;;;13.10;4.37;;;14.30;99.90;;;;;;5056301;28;20267;-41
2022/06/09 05:33:50;;;;;;;11.00;4.73;;;14.30;99.90;;;;;;5056195;28;20214;-42
2022/06/09 05:36:15;;;;;;;10.20;4.00;;;14.40;99.90;;;;;;5055987;28;20212;-42
2022/06/09 05:46:54;;;;;;;16.10;4.90;;;14.70;99.90;;;;;;5056391;28;20254;-41
2022/06/09 05:49:20;;;;;;;13.13;5.07;;;14.70;99.90;;;;;;5055878;28;20200;-41
2022/06/09 05:51:49;;;;;;;14.97;5.17;;;14.80;99.90;;;;;;5055886;28;20184;-43
2022/06/09 05:54:15;;;;;;;16.17;4.87;;;14.80;99.90;;;;;;5055502;28;20173;-43
2022/06/09 05:56:41;;;;;;;15.80;5.00;;;14.80;99.90;;;;;;5055763;28;20195;-40
2022/06/09 05:59:07;;;;;;;11.73;4.43;;;14.90;99.90;;;;;;5055711;28;20196;-42
2022/06/09 06:01:32;;;;;;;20.87;5.30;;;14.90;99.90;;;;;;5055678;28;20180;-40
2022/06/09 06:03:59;;;;;;;14.07;4.97;;;14.90;99.90;;;;;;5058684;28;20194;-44
2022/06/09 06:06:34;;;;;;;15.43;5.13;;;14.90;99.90;;;;;;5037749;28;20208;-42
2022/06/09 06:09:14;;;;;;;13.00;5.67;;;15.00;99.90;;;;;;5037424;28;20222;-40
2022/06/09 06:11:40;;;;;;;10.67;5.13;;;15.00;99.90;;;;;;5055481;28;20295;-38
2022/06/09 06:14:08;;;;;;;14.23;4.97;;;15.10;99.90;;;;;;5057607;28;20180;-41
2022/06/09 06:16:34;;;;;;;14.53;5.80;;;15.00;99.90;;;;;;5055934;28;20207;-41
2022/06/09 06:18:59;;;;;;;16.07;5.77;;;15.10;99.90;;;;;;5055639;28;20653;-42
2022/06/09 06:21:25;;;;;;;14.13;5.43;;;15.10;99.90;;;;;;5055257;28;20240;-43
2022/06/09 06:23:52;;;;;;;16.33;5.67;;;15.10;99.90;;;;;;5055415;28;20203;-41
2022/06/09 06:26:17;;;;;;;18.47;6.00;;;15.20;99.90;;;;;;5055238;28;20188;-42
2022/06/09 06:28:43;;;;;;;14.27;5.60;;;15.20;99.90;;;;;;5055040;28;20274;-40
2022/06/09 06:31:09;;;;;;;10.23;5.20;;;15.20;99.90;;;;;;5055329;28;20184;-43
2022/06/09 06:33:35;;;;;;;13.03;5.97;;;15.20;99.90;;;;;;5055057;28;20233;-41
2022/06/09 06:36:00;;;;;;;15.23;5.80;;;15.30;99.90;;;;;;5054919;28;20176;-42
2022/06/09 06:38:26;;;;;;;14.27;5.80;;;15.30;99.90;;;;;;5054922;28;20250;-40
2022/06/09 06:40:54;;;;;;;14.57;5.60;;;15.30;99.90;;;;;;5055514;28;20236;-41
2022/06/09 06:43:21;;;;;;;14.70;6.43;;;15.30;99.90;;;;;;5054788;28;20176;-40
2022/06/09 06:45:46;;;;;;;11.67;6.03;;;15.40;99.90;;;;;;5054966;28;20243;-40
2022/06/09 06:48:12;;;;;;;11.40;5.93;;;15.40;99.90;;;;;;5054741;28;20632;-40
2022/06/09 06:50:38;;;;;;;14.80;6.27;;;15.50;99.90;;;;;;5054649;28;20549;-43
2022/06/09 06:53:03;;;;;;;13.30;5.87;;;15.50;99.90;;;;;;5054885;28;20538;-42
2022/06/09 06:55:29;;;;;;;16.60;6.10;;;15.50;99.90;;;;;;5054870;28;20545;-41
2022/06/09 06:57:55;;;;;;;13.50;6.10;;;15.60;99.90;;;;;;5054339;28;20626;-43
2022/06/09 07:00:23;;;;;;;18.73;6.67;;;15.60;99.90;;;;;;5055509;28;20188;-42
2022/06/09 07:02:50;;;;;;;23.50;7.00;;;15.60;99.90;;;;;;5055466;28;20180;-38
2022/06/09 07:05:17;;;;;;;16.20;7.17;;;15.70;99.90;;;;;;5054105;28;20267;-42
2022/06/09 07:07:42;;;;;;;18.63;6.80;;;15.70;99.90;;;;;;5053491;28;20204;-40
2022/06/09 07:10:10;;;;;;;15.03;5.87;;;15.80;99.90;;;;;;5054157;28;20199;-42
2022/06/09 07:12:37;;;;;;;13.03;6.60;;;15.80;99.90;;;;;;5054266;28;20180;-42
2022/06/09 07:15:04;;;;;;;16.30;6.10;;;15.80;99.90;;;;;;5054112;28;20208;-40
2022/06/09 07:17:29;;;;;;;14.83;6.13;;;15.80;99.90;;;;;;5053994;28;20180;-41
2022/06/09 07:19:55;;;;;;;18.77;5.67;;;15.80;99.90;;;;;;5054084;28;20187;-43
2022/06/09 07:22:21;;;;;;;13.77;6.27;;;15.80;99.90;;;;;;5054019;28;20251;-40
2022/06/09 07:24:48;;;;;;;10.30;5.77;;;15.80;99.90;;;;;;5054266;28;20180;-42
2022/06/09 07:27:14;;;;;;;12.80;4.83;;;15.80;99.90;;;;;;5053863;28;20249;-41
2022/06/09 07:29:40;;;;;;;14.73;6.00;;;15.80;99.90;;;;;;5053868;28;20671;-41
2022/06/09 07:32:07;;;;;;;13.53;5.83;;;15.70;99.90;;;;;;5054036;28;20176;-42
2022/06/09 07:34:34;;;;;;;14.83;5.40;;;15.80;99.90;;;;;;5054004;28;20179;-42
2022/06/09 07:36:59;;;;;;;12.63;6.10;;;15.80;99.90;;;;;;5054144;28;20184;-43
2022/06/09 07:39:25;;;;;;;17.20;6.40;;;15.70;99.90;;;;;;5054044;28;20215;-44
2022/06/09 07:41:52;;;;;;;14.83;6.37;;;15.70;99.90;;;;;;5054110;28;20191;-43
2022/06/09 07:44:17;;;;;;;12.27;5.70;;;15.70;99.90;;;;;;5054035;28;20271;-43
2022/06/09 07:46:43;;;;;;;13.07;5.90;;;15.80;99.90;;;;;;5053871;28;20629;-42
2022/06/09 07:49:10;;;;;;;15.53;5.70;;;15.80;99.90;;;;;;5053508;28;20196;-41
2022/06/09 07:51:37;;;;;;;15.80;5.57;;;15.80;99.90;;;;;;5053608;28;20589;-42
2022/06/09 07:54:02;;;;;;;13.83;5.50;;;15.90;99.90;;;;;;5053606;28;20172;-44
2022/06/09 07:56:32;;;;;;;14.30;5.60;;;15.90;99.90;;;;;;5053893;28;20702;-43
2022/06/09 07:58:58;;;;;;;18.07;5.93;;;16.00;99.90;;;;;;5053390;28;20188;-42
2022/06/09 08:01:23;;;;;;;15.50;5.50;;;16.10;99.90;;;;;;5053551;28;20255;-42
2022/06/09 08:03:49;;;;;;;13.30;5.77;;;16.20;99.90;;;;;;5054012;28;20683;-41
2022/06/09 08:06:16;;;;;;;17.40;6.27;;;16.30;99.90;;;;;;5053648;28;20184;-39
2022/06/09 08:08:41;;;;;;;14.10;6.33;;;16.40;99.90;;;;;;5053533;28;20196;-41
2022/06/09 08:11:09;;;;;;;11.63;5.67;;;16.60;99.90;;;;;;5053459;28;20184;-45
2022/06/09 08:13:36;;;;;;;13.07;6.07;;;16.70;99.90;;;;;;5053381;28;20190;-41
2022/06/09 08:16:03;;;;;;;16.47;5.30;;;16.90;99.90;;;;;;5053504;28;20176;-43
2022/06/09 08:18:28;;;;;;;11.97;4.60;;;17.20;99.90;;;;;;5053700;28;20219;-42
2022/06/09 08:20:55;;;;;;;14.40;5.73;;;17.40;99.90;;;;;;5035357;28;20597;-42
2022/06/09 08:23:23;;;;;;;12.97;5.07;;;17.50;99.90;;;;;;5053230;28;20258;-44
2022/06/09 08:25:53;;;;;;;11.80;3.97;;;17.60;99.90;;;;;;5053441;28;20187;-41
2022/06/09 08:28:20;;;;;;;10.13;4.53;;;17.70;99.90;;;;;;5053098;28;20203;-42
2022/06/09 08:30:48;;;;;;;12.57;5.03;;;17.80;99.90;;;;;;5053258;28;20703;-44
2022/06/09 08:33:14;;;;;;;9.90;4.57;;;17.90;99.90;;;;;;5053150;28;20548;-42
2022/06/09 08:35:40;;;;;;;13.83;5.33;;;18.00;99.90;;;;;;5053011;28;20226;-42
2022/06/09 08:38:07;;;;;;;12.23;4.80;;;18.00;99.90;;;;;;5052916;28;20204;-41
2022/06/09 08:41:08;;;;;;;13.40;5.00;;;18.10;99.90;;;;;;5052947;28;20662;-41
2022/06/09 08:43:53;;;;;;;20.17;4.93;;;18.10;99.90;;;;;;5053144;28;20180;-38
2022/06/09 08:46:26;;;;;;;9.03;4.50;;;18.10;99.90;;;;;;5052826;28;20506;-40
2022/06/09 08:49:00;;;;;;;12.33;4.63;;;18.10;99.90;;;;;;5052815;28;20200;-42
2022/06/09 08:51:43;;;;;;;7.70;4.30;;;18.20;99.90;;;;;;5052852;28;20169;-39
2022/06/09 08:54:20;;;;;;;10.03;4.40;;;18.40;99.90;;;;;;5035022;28;20168;-40
2022/06/09 08:56:47;;;;;;;12.37;4.60;;;18.50;99.90;;;;;;5052896;28;20247;-39
2022/06/09 08:59:16;;;;;;;11.53;4.23;;;18.70;99.90;;;;;;5052707;28;20664;-41
2022/06/09 09:01:47;;;;;;;13.03;4.63;;;19.00;99.90;;;;;;5053177;28;20180;-42
2022/06/09 09:04:22;;;;;;;12.30;4.60;;;19.00;99.90;;;;;;5034978;28;20242;-41
2022/06/09 09:07:01;;;;;;;9.47;4.57;;;19.00;99.90;;;;;;5052768;28;20200;-42
2022/06/09 09:09:32;;;;;;;10.33;4.40;;;18.90;99.90;;;;;;5034560;28;20207;-42
2022/06/09 09:12:15;;;;;;;6.70;4.23;;;18.80;99.90;;;;;;5052824;28;20223;-43
2022/06/09 09:14:52;;;;;;;10.80;4.70;;;18.80;99.90;;;;;;5052938;28;20175;-40
2022/06/09 09:17:41;;;;;;;6.10;4.20;;;18.70;99.90;;;;;;5052647;28;20161;-39
2022/06/09 09:20:38;;;;;;;14.13;4.53;;;18.80;99.90;;;;;;5015511;28;20279;-41
2022/06/09 09:23:19;;;;;;;8.77;4.43;;;18.90;99.90;;;;;;5034832;28;20172;-39
2022/06/09 09:25:52;;;;;;;8.83;4.50;;;19.10;99.90;;;;;;5052788;28;20173;-41
2022/06/09 09:28:32;;;;;;;6.77;3.90;;;19.40;99.90;;;;;;5034533;28;20220;-42
2022/06/09 09:31:15;;;;;;;8.70;4.60;;;19.60;99.90;;;;;;5055531;28;20199;-44
2022/06/09 09:33:41;;;;;;;10.73;4.80;;;19.60;99.90;;;;;;5056057;28;20176;-40
2022/06/09 09:36:26;;;;;;;8.03;4.23;;;19.70;99.90;;;;;;5055956;28;20182;-42
2022/06/09 09:39:10;;;;;;;10.97;4.10;;;19.80;99.90;;;;;;5038001;28;20196;-41
2022/06/09 09:41:38;;;;;;;8.10;3.60;;;19.80;99.90;;;;;;5056190;28;20647;-41
2022/06/09 09:44:20;;;;;;;6.73;3.20;;;19.80;99.90;;;;;;5055941;28;20175;-42
2022/06/09 09:46:52;;;;;;;8.73;3.23;;;19.80;99.90;;;;;;5055722;28;20207;-44
2022/06/09 09:49:29;;;;;;;9.63;3.17;;;19.80;99.90;;;;;;5055664;28;20204;-41
2022/06/09 09:51:57;;;;;;;12.97;3.67;;;19.80;99.90;;;;;;5055710;28;20152;-43
2022/06/09 09:54:28;;;;;;;13.77;3.47;;;19.70;99.90;;;;;;5055912;28;20172;-42
2022/06/09 09:57:15;;;;;;;15.17;3.63;;;19.60;99.90;;;;;;5055846;28;20161;-44
2022/06/09 09:59:51;;;;;;;8.60;2.97;;;19.50;99.90;;;;;;5055396;28;20200;-44
2022/06/09 10:08:41;;;;;;;9.83;3.70;;;18.90;99.90;;;;;;5057016;28;20761;-47
2022/06/09 10:11:53;;;;;;;8.63;3.47;;;18.70;99.90;;;;;;5056999;28;20184;-46
2022/06/09 10:14:46;;;;;;;10.27;3.10;;;18.50;99.90;;;;;;5056719;28;20184;-47
2022/06/09 10:17:35;;;;;;;11.73;3.73;;;18.40;99.90;;;;;;5056783;28;20166;-47
2022/06/09 10:20:07;;;;;;;10.13;3.43;;;18.40;99.90;;;;;;5056393;28;20180;-47
2022/06/09 10:22:37;;;;;;;8.43;3.30;;;18.50;99.90;;;;;;5055789;28;20176;-47
2022/06/09 10:25:33;;;;;;;11.30;3.27;;;18.50;99.90;;;;;;5055729;28;20181;-46
2022/06/09 10:28:06;;;;;;;9.40;3.53;;;18.60;99.90;;;;;;5055581;28;20212;-46
2022/06/09 10:30:48;;;;;;;6.60;3.17;;;18.70;99.90;;;;;;5055748;28;20698;-48
2022/06/09 10:33:36;;;;;;;8.70;3.43;;;18.90;99.90;;;;;;5055494;28;20187;-46
2022/06/09 10:36:20;;;;;;;8.60;2.53;;;19.00;99.90;;;;;;5055908;28;20215;-46
2022/06/09 10:38:51;;;;;;;10.90;2.77;;;19.10;99.90;;;;;;5038198;28;20208;-46
2022/06/09 10:41:42;;;;;;;8.53;2.93;;;19.10;99.90;;;;;;5055631;28;20169;-47
2022/06/09 10:44:23;;;;;;;8.20;3.40;;;19.20;99.90;;;;;;5037179;28;20499;-41
2022/06/09 10:57:23;;;;;;;8.93;3.67;;;19.90;99.90;;;;;;5054571;28;20172;-43
2022/06/09 11:00:01;;;;;;;12.57;3.40;;;20.10;99.90;;;;;;5054415;28;20283;-43
2022/06/09 11:02:30;;;;;;;9.87;2.93;;;20.10;99.90;;;;;;5054591;28;20176;-44
2022/06/09 11:04:57;;;;;;;15.43;3.37;;;20.10;99.90;;;;;;5054586;28;20266;-44
2022/06/09 11:07:52;;;;;;;6.53;2.90;;;20.10;99.90;;;;;;5054620;28;20196;-45
2022/06/09 11:10:43;;;;;;;6.93;2.80;;;20.20;99.90;;;;;;5036396;28;20230;-44
2022/06/09 11:13:11;;;;;;;8.27;2.77;;;20.50;99.90;;;;;;5054421;28;20160;-39
2022/06/09 11:15:45;;;;;;;6.13;2.40;;;20.90;99.90;;;;;;5055195;28;20591;-43
2022/06/09 11:18:32;;;;;;;13.80;3.17;;;21.10;99.90;;;;;;5054292;28;20292;-40
2022/06/09 11:21:08;;;;;;;12.23;3.10;;;21.30;99.90;;;;;;5036159;28;20184;-43
2022/06/09 11:23:45;;;;;;;10.47;2.83;;;21.50;99.90;;;;;;5054340;28;20251;-43
2022/06/09 11:26:25;;;;;;;6.93;2.50;;;21.50;99.90;;;;;;5053925;28;20187;-44
2022/06/09 11:29:15;;;;;;;7.07;2.93;;;21.60;99.90;;;;;;5054373;28;20273;-43
2022/06/09 11:32:13;;;;;;;7.67;2.60;;;21.60;99.90;;;;;;5054484;28;20168;-44
2022/06/09 11:35:13;;;;;;;6.33;2.70;;;21.50;99.90;;;;;;5035825;28;20219;-42
2022/06/09 11:37:54;;;;;;;8.10;2.60;;;21.70;99.90;;;;;;5053736;28;20537;-43
2022/06/09 11:40:34;;;;;;;7.27;3.37;;;21.90;99.90;;;;;;5054031;28;20222;-44
2022/06/09 11:43:18;;;;;;;8.80;3.40;;;22.00;99.90;;;;;;5053744;28;20172;-41
2022/06/09 11:45:50;;;;;;;8.23;2.90;;;22.10;99.90;;;;;;5053903;28;20639;-43
2022/06/09 11:48:35;;;;;;;7.23;2.93;;;22.10;99.90;;;;;;5053451;28;20581;-42
2022/06/09 11:51:03;;;;;;;8.70;2.87;;;22.00;99.90;;;;;;5053162;28;20189;-45
2022/06/09 11:53:32;;;;;;;6.73;2.80;;;22.00;99.90;;;;;;5053073;28;20172;-44
2022/06/09 11:56:34;;;;;;;8.93;3.03;;;21.90;99.90;;;;;;5053726;28;20258;-42
2022/06/09 11:59:04;;;;;;;8.10;2.63;;;21.80;99.90;;;;;;5053945;28;20222;-44
2022/06/09 12:01:39;;;;;;;6.13;2.20;;;21.60;99.90;;;;;;5035625;28;20238;-41
2022/06/09 12:04:41;;;;;;;6.37;2.57;;;21.40;99.90;;;;;;5053976;28;20179;-43
2022/06/09 12:07:39;;;;;;;3.63;1.93;;;21.30;99.90;;;;;;5054012;28;20208;-46
2022/06/09 12:10:24;;;;;;;9.17;1.77;;;20.80;99.90;;;;;;5053287;28;20192;-44
2022/06/09 12:13:16;;;;;;;10.70;1.70;;;19.40;99.90;;;;;;5053719;28;20253;-44
2022/06/09 12:15:50;;;;;;;2.97;1.50;;;17.80;99.90;;;;;;5055137;28;20179;-44
2022/06/09 12:18:17;;;;;;;2.97;1.50;;;16.90;99.90;;;;;;5054102;28;20199;-44
2022/06/09 12:20:49;;;;;;;3.47;1.23;;;16.20;99.90;;;;;;5054312;28;20196;-44
2022/06/09 12:23:28;;;;;;;3.30;1.40;;;15.70;99.90;;;;;;5053885;28;20177;-46
2022/06/09 12:26:09;;;;;;;3.27;1.10;;;15.40;99.90;;;;;;5054114;28;20207;-44
2022/06/09 12:28:49;;;;;;;1.43;1.10;;;15.00;99.90;;;;;;5053769;28;20208;-43
2022/06/09 12:31:37;;;;;;;1.57;0.97;;;14.70;99.90;;;;;;5053420;28;20199;-44
2022/06/09 12:34:13;;;;;;;1.80;1.00;;;14.60;99.90;;;;;;5053049;28;20160;-44
2022/06/09 12:36:52;;;;;;;1.37;1.00;;;14.40;99.90;;;;;;5053227;28;20165;-42
2022/06/09 12:39:29;;;;;;;1.43;1.20;;;14.30;99.90;;;;;;5053159;28;20196;-45
2022/06/09 12:42:05;;;;;;;2.37;0.97;;;14.30;99.90;;;;;;5035126;28;20562;-44
2022/06/09 12:44:38;;;;;;;0.70;0.70;;;14.30;99.90;;;;;;5053234;28;20531;-43
2022/06/09 12:47:15;;;;;;;2.20;1.30;;;14.30;99.90;;;;;;5053000;28;20294;-45
2022/06/09 12:49:42;;;;;;;1.17;0.97;;;14.30;99.90;;;;;;5053074;28;20258;-44
2022/06/09 12:52:33;;;;;;;2.43;0.90;;;14.40;99.90;;;;;;5052939;28;20552;-45
2022/06/09 12:55:08;;;;;;;1.77;0.77;;;14.50;99.90;;;;;;5042295;28;20184;-41
2022/06/09 12:57:42;;;;;;;1.20;1.00;;;14.70;99.90;;;;;;5052928;28;20173;-45
2022/06/09 13:00:14;;;;;;;2.10;1.07;;;14.70;99.90;;;;;;5053134;28;20173;-44
2022/06/09 13:02:40;;;;;;;2.40;1.10;;;15.00;99.90;;;;;;5053164;28;20169;-42
2022/06/09 13:05:12;;;;;;;1.77;1.40;;;15.10;99.90;;;;;;5055003;28;20183;-45
2022/06/09 13:07:47;;;;;;;1.00;0.97;;;15.20;99.90;;;;;;5056445;28;20199;-43
2022/06/09 13:10:23;;;;;;;3.00;1.10;;;15.30;99.90;;;;;;5056607;28;20192;-45
2022/06/09 13:12:52;;;;;;;1.33;1.23;;;15.40;99.90;;;;;;5056370;28;20164;-43
2022/06/09 13:15:36;;;;;;;1.43;1.30;;;15.50;99.90;;;;;;5056402;28;20186;-44
2022/06/09 13:18:30;;;;;;;1.30;1.20;;;15.70;99.90;;;;;;5056255;28;20671;-42
2022/06/09 13:21:07;;;;;;;2.07;1.70;;;15.90;99.90;;;;;;5046742;28;20206;-43
2022/06/09 13:23:33;;;;;;;2.80;1.70;;;16.10;99.90;;;;;;5056768;28;20627;-45
2022/06/09 13:26:00;;;;;;;2.80;2.13;;;16.30;99.90;;;;;;5056401;28;20230;-44
2022/06/09 13:28:47;;;;;;;4.17;1.93;;;16.40;99.90;;;;;;5022057;28;20577;-43
2022/06/09 13:31:31;;;;;;;3.77;2.37;;;16.50;99.90;;;;;;5056700;28;20576;-43